Time;durP1;ratioP1;P1;durP2;ratioP2;P2;SDS_P1;SDS_P2;PMS_P1;PMS_P2;Temp;Humidity;BMP_temperature;BMP_pressure;BME280_temperature;BME280_humidity;BME280_pressure;Samples;Min_cycle;Max_cycle;Signal;HPM_P1;HPM_P2
2021/12/11 00:01:43;;;;;;;1.60;1.10;;;2.70;99.90;;;1.89;100.00;95829.41;5064068;28;20047;-38
2021/12/11 00:04:14;;;;;;;3.33;1.15;;;2.70;99.90;;;1.89;100.00;95835.44;5064459;28;20064;-37
2021/12/11 00:06:48;;;;;;;4.03;1.02;;;2.70;99.90;;;1.87;100.00;95842.44;5067170;28;20623;-37
2021/12/11 00:09:23;;;;;;;1.63;0.90;;;2.70;99.90;;;1.89;100.00;95845.00;5071244;28;20028;-37
2021/12/11 00:11:55;;;;;;;2.10;1.15;;;2.80;99.90;;;1.91;100.00;95849.25;5065092;28;20418;-38
2021/12/11 00:14:23;;;;;;;2.63;1.08;;;2.80;99.90;;;1.93;100.00;95843.16;5067525;28;20039;-37
2021/12/11 00:16:50;;;;;;;3.03;1.25;;;2.80;99.90;;;1.95;100.00;95856.97;5069123;28;20024;-37
2021/12/11 00:19:26;;;;;;;2.50;1.40;;;2.80;99.90;;;1.92;100.00;95868.31;5072686;28;20490;-37
2021/12/11 00:22:02;;;;;;;3.17;1.10;;;2.80;99.90;;;1.98;100.00;95868.13;5071853;28;20044;-37
2021/12/11 00:24:30;;;;;;;1.73;1.10;;;2.80;99.90;;;1.95;100.00;95881.22;5069734;28;20028;-37
2021/12/11 00:27:03;;;;;;;2.13;0.90;;;2.80;99.90;;;1.91;100.00;95890.00;5070627;28;20044;-38
2021/12/11 00:29:31;;;;;;;2.50;1.20;;;2.80;99.90;;;1.98;100.00;95888.94;5067400;28;20302;-38
2021/12/11 00:32:03;;;;;;;1.48;1.05;;;2.80;99.90;;;1.89;100.00;95910.84;5066388;28;20042;-38
2021/12/11 00:34:29;;;;;;;3.72;1.10;;;2.80;99.90;;;1.88;100.00;95906.56;5066903;28;20122;-38
2021/12/11 00:37:00;;;;;;;1.65;0.77;;;2.80;99.90;;;1.88;100.00;95916.06;5070215;28;20606;-37
2021/12/11 00:39:26;;;;;;;2.00;0.82;;;2.80;99.90;;;1.87;100.00;95923.03;5071044;28;20021;-38
2021/12/11 00:41:55;;;;;;;1.65;1.05;;;2.70;99.90;;;1.89;100.00;95923.00;5070774;28;20439;-39
2021/12/11 00:44:47;;;;;;;2.33;1.10;;;2.80;99.90;;;1.87;100.00;95929.97;5071547;28;20693;-38
2021/12/11 00:47:17;;;;;;;2.10;1.20;;;2.70;99.90;;;1.86;100.00;95938.66;5068706;28;20034;-38
2021/12/11 00:49:58;;;;;;;2.00;1.23;;;2.70;99.90;;;1.93;100.00;95942.81;5068273;28;20055;-38
2021/12/11 00:52:43;;;;;;;2.58;1.20;;;2.80;99.90;;;1.87;100.00;95942.97;5068361;28;20041;-38
2021/12/11 00:55:28;;;;;;;2.33;1.30;;;2.70;99.90;;;1.60;100.00;95952.31;5072061;28;20016;-37
2021/12/11 00:58:12;;;;;;;1.52;1.00;;;2.60;99.90;;;1.56;100.00;95946.31;5069601;28;20020;-38
2021/12/11 01:01:00;;;;;;;2.28;1.20;;;2.50;99.90;;;1.50;100.00;95962.09;5062740;28;20043;-38
2021/12/11 01:03:49;;;;;;;1.85;1.13;;;2.30;99.90;;;1.40;100.00;95970.97;5068333;28;20032;-38
2021/12/11 01:06:24;;;;;;;1.52;1.25;;;2.30;99.90;;;1.38;100.00;95973.59;5070990;28;20032;-37
2021/12/11 01:09:02;;;;;;;1.80;1.40;;;2.30;99.90;;;1.30;100.00;95975.53;5065880;28;20054;-37
2021/12/11 01:12:10;;;;;;;1.63;1.08;;;2.20;99.90;;;1.17;100.00;95979.28;5068946;28;20035;-37
2021/12/11 01:14:54;;;;;;;1.98;1.25;;;2.10;99.90;;;1.02;100.00;95990.88;5067564;28;20052;-38
2021/12/11 01:17:48;;;;;;;4.03;1.55;;;2.00;99.90;;;1.00;100.00;95996.09;5067304;28;20051;-38
2021/12/11 01:20:36;;;;;;;1.38;0.80;;;1.90;99.90;;;0.95;100.00;96006.59;5069993;28;20517;-37
2021/12/11 01:23:27;;;;;;;1.00;0.70;;;1.90;99.90;;;0.78;100.00;96000.91;5068453;28;20031;-38
2021/12/11 01:25:53;;;;;;;1.30;0.95;;;1.80;99.90;;;0.87;100.00;96012.84;5069396;28;20032;-38
2021/12/11 01:28:19;;;;;;;1.38;0.90;;;1.80;99.90;;;0.79;100.00;96015.59;5068530;28;20032;-38
2021/12/11 01:30:45;;;;;;;1.30;1.20;;;1.80;99.90;;;0.75;100.00;96024.31;5068029;28;20199;-38
2021/12/11 01:33:13;;;;;;;1.08;0.90;;;1.70;99.90;;;0.78;100.00;96033.81;5067765;28;20328;-38
2021/12/11 01:35:40;;;;;;;1.55;0.80;;;1.70;99.90;;;0.73;100.00;96041.66;5068199;28;20102;-37
2021/12/11 01:38:18;;;;;;;1.73;0.90;;;1.70;99.90;;;0.75;100.00;96042.47;5071030;28;20025;-37
2021/12/11 01:40:47;;;;;;;1.83;1.10;;;1.70;99.90;;;0.68;100.00;96049.56;5066217;28;20035;-38
2021/12/11 01:43:14;;;;;;;12.82;1.45;;;1.70;99.90;;;0.66;100.00;96058.25;5065988;28;20028;-38
2021/12/11 01:45:45;;;;;;;2.50;1.10;;;1.60;99.90;;;0.62;100.00;96059.19;5067427;28;20044;-37
2021/12/11 01:48:22;;;;;;;1.45;1.10;;;1.60;99.90;;;0.55;100.00;96055.84;5067233;28;20036;-37
2021/12/11 01:51:01;;;;;;;1.58;0.70;;;1.60;99.90;;;0.61;100.00;96073.03;5068780;28;20040;-37
2021/12/11 01:53:42;;;;;;;0.98;0.80;;;1.60;99.90;;;0.56;100.00;96076.59;5069862;28;20082;-39
2021/12/11 01:56:20;;;;;;;5.17;1.47;;;1.60;99.90;;;0.56;100.00;96083.50;5068701;28;20047;-37
2021/12/11 01:59:06;;;;;;;1.25;0.90;;;1.50;99.90;;;0.51;100.00;96086.19;5065098;28;20079;-37
2021/12/11 02:02:16;;;;;;;1.73;0.73;;;1.50;99.90;;;0.50;100.00;96094.88;5071241;28;20083;-37
2021/12/11 02:04:48;;;;;;;18.42;1.60;;;1.50;99.90;;;0.44;100.00;96094.97;5057935;28;20298;-37
2021/12/11 02:07:22;;;;;;;20.67;1.95;;;1.40;99.90;;;0.44;100.00;96100.16;5070676;28;20040;-37
2021/12/11 02:09:51;;;;;;;0.80;0.60;;;1.40;99.90;;;0.42;100.00;96101.91;5073225;28;20294;-37
2021/12/11 02:12:22;;;;;;;5.22;0.93;;;1.40;99.90;;;0.39;100.00;96109.75;5067882;28;20063;-37
2021/12/11 02:14:54;;;;;;;1.38;0.68;;;1.40;99.90;;;0.27;100.00;96107.34;5068834;28;20581;-37
2021/12/11 02:17:52;;;;;;;32.42;1.88;;;1.40;99.90;;;0.37;100.00;96124.47;5069090;28;20036;-37
2021/12/11 02:20:31;;;;;;;0.68;0.60;;;1.40;99.90;;;0.36;100.00;96125.38;5069214;28;20112;-38
2021/12/11 02:22:58;;;;;;;0.77;0.60;;;1.40;99.90;;;0.30;100.00;96125.47;5071837;28;20627;-38
2021/12/11 02:25:32;;;;;;;11.35;1.35;;;1.30;99.90;;;0.27;100.00;96141.06;5070579;28;20044;-37
2021/12/11 02:28:06;;;;;;;16.35;1.77;;;1.30;99.90;;;0.19;100.00;96143.78;5075604;28;20524;-38
2021/12/11 02:30:42;;;;;;;1.70;0.68;;;1.30;99.90;;;-0.12;100.00;96104.56;5073749;28;20081;-37
2021/12/11 02:33:07;;;;;;;30.08;2.78;;;1.20;99.90;;;0.06;100.00;96153.50;5068683;28;20513;-38
2021/12/11 02:36:09;;;;;;;32.63;1.73;;;1.10;99.90;;;0.01;100.00;96147.53;5070484;28;20031;-38
2021/12/11 02:39:11;;;;;;;36.58;2.92;;;1.10;99.90;;;-0.01;100.00;96162.25;5069813;28;20414;-38
2021/12/11 02:41:49;;;;;;;0.68;0.68;;;1.10;99.90;;;0.03;100.00;96165.66;5071409;28;20438;-37
2021/12/11 02:44:34;;;;;;;21.15;2.25;;;1.10;99.90;;;-0.11;100.00;96155.50;5072367;28;20036;-37
2021/12/11 02:47:11;;;;;;;3.80;1.10;;;1.00;99.90;;;0.04;100.00;96176.00;5072775;28;20103;-38
2021/12/11 02:49:51;;;;;;;1.55;0.95;;;1.00;99.90;;;0.00;100.00;96187.31;5069350;28;20089;-38
2021/12/11 02:52:34;;;;;;;1.40;1.08;;;1.00;99.90;;;-0.01;100.00;96188.19;5069044;28;20420;-38
2021/12/11 02:55:25;;;;;;;39.40;3.53;;;1.00;99.90;;;-0.01;100.00;96183.84;5074423;28;20021;-37
2021/12/11 02:58:00;;;;;;;24.50;2.53;;;1.00;99.90;;;0.01;100.00;96177.78;5072827;28;20071;-38
2021/12/11 03:00:32;;;;;;;7.50;1.65;;;1.10;99.90;;;0.03;100.00;96194.16;5072947;28;20129;-37
2021/12/11 03:03:05;;;;;;;17.83;3.20;;;1.00;99.90;;;0.03;100.00;96196.75;5070867;28;20303;-37
2021/12/11 03:06:00;;;;;;;13.73;1.98;;;1.10;99.90;;;0.04;100.00;96196.75;5070615;28;20040;-37
2021/12/11 03:08:26;;;;;;;1.35;1.25;;;1.10;99.90;;;0.05;100.00;96201.03;5070289;28;20071;-37
2021/12/11 03:10:58;;;;;;;4.93;1.92;;;1.00;99.90;;;0.09;100.00;96207.91;5067994;28;20029;-37
2021/12/11 03:13:27;;;;;;;;;;;1.10;99.90;;;0.10;100.00;96216.53;5070754;28;20028;-37
2021/12/11 03:15:53;;;;;;;3.50;1.42;;;1.10;99.90;;;0.14;100.00;96208.69;5070030;28;19935;-38
2021/12/11 03:18:19;;;;;;;2.03;1.60;;;1.10;99.90;;;0.15;100.00;96227.69;5069843;28;20544;-38
2021/12/11 03:20:48;;;;;;;51.25;5.47;;;1.10;99.90;;;0.14;100.00;96229.44;5072691;28;20111;-37
2021/12/11 03:23:14;;;;;;;73.00;5.55;;;1.20;99.90;;;0.19;100.00;96232.78;5067817;28;20039;-38
2021/12/11 03:25:41;;;;;;;4.00;1.65;;;1.20;99.90;;;0.18;100.00;96236.28;5068685;28;20220;-38
2021/12/11 03:28:10;;;;;;;8.27;2.28;;;1.20;99.90;;;0.23;100.00;96243.13;5072662;28;20032;-38
2021/12/11 03:30:43;;;;;;;5.43;1.65;;;1.20;99.90;;;0.22;100.00;96247.47;5070566;28;20529;-38
2021/12/11 03:33:17;;;;;;;8.05;1.70;;;1.20;99.90;;;0.23;100.00;96259.53;5068640;28;20054;-38
2021/12/11 03:35:43;;;;;;;8.75;2.20;;;1.20;99.90;;;0.26;100.00;96262.09;5068196;28;20035;-38
2021/12/11 03:38:10;;;;;;;1.98;1.60;;;1.30;99.90;;;0.18;100.00;96256.19;5070671;28;20024;-37
2021/12/11 03:40:37;;;;;;;1.30;1.20;;;1.30;99.90;;;0.36;100.00;96275.81;5067668;28;20123;-37
2021/12/11 03:43:09;;;;;;;1.80;1.60;;;1.30;99.90;;;0.35;100.00;96287.03;5069081;28;20028;-38
2021/12/11 03:45:37;;;;;;;;;;;1.30;99.90;;;0.36;100.00;96294.81;5070028;28;20523;-37
2021/12/11 03:48:19;;;;;;;11.77;2.50;;;1.30;99.90;;;0.37;100.00;96293.06;5071372;28;19912;-37
2021/12/11 03:50:46;;;;;;;5.43;1.85;;;1.40;99.90;;;0.42;100.00;96304.22;5072004;28;20044;-37
2021/12/11 03:53:13;;;;;;;3.65;1.73;;;1.40;99.90;;;0.42;100.00;96304.22;5074444;28;20224;-38
2021/12/11 03:55:44;;;;;;;5.80;2.10;;;1.40;99.90;;;0.43;100.00;96308.56;5070416;28;20086;-37
2021/12/11 03:58:11;;;;;;;2.25;1.60;;;1.40;99.90;;;0.44;100.00;96319.78;5066153;28;20028;-37
2021/12/11 04:01:03;;;;;;;2.17;1.90;;;1.50;99.90;;;0.45;100.00;96321.47;5063882;28;20379;-38
2021/12/11 04:03:32;;;;;;;;;;;1.40;99.90;;;0.40;100.00;96315.53;5073581;28;20434;-37
2021/12/11 04:06:02;;;;;;;3.42;1.80;;;1.40;99.90;;;0.49;100.00;96325.75;5069526;28;19927;-37
2021/12/11 04:08:37;;;;;;;3.35;2.33;;;1.50;99.90;;;0.47;100.00;96335.31;5070476;28;20032;-37
2021/12/11 04:11:03;;;;;;;3.22;1.77;;;1.40;99.90;;;0.51;100.00;96336.97;5072352;28;20538;-37
2021/12/11 04:13:29;;;;;;;2.78;2.05;;;1.50;99.90;;;0.48;100.00;96343.03;5069558;28;20033;-37
2021/12/11 04:15:55;;;;;;;3.05;2.38;;;1.50;99.90;;;0.38;100.00;96339.72;5066496;28;20024;-37
2021/12/11 04:18:22;;;;;;;2.42;2.22;;;1.40;99.90;;;0.45;100.00;96357.78;5067452;28;20078;-37
2021/12/11 04:20:50;;;;;;;4.40;2.97;;;1.40;99.90;;;0.46;100.00;96368.16;5070551;28;20023;-37
2021/12/11 04:23:18;;;;;;;6.88;2.80;;;1.40;99.90;;;0.46;100.00;96362.97;5064289;28;20035;-37
2021/12/11 04:25:49;;;;;;;3.13;2.78;;;1.50;99.90;;;0.46;100.00;96372.47;5070241;28;20039;-37
2021/12/11 04:28:18;;;;;;;4.10;2.75;;;1.50;99.90;;;0.49;100.00;96378.50;5068500;28;20548;-37
2021/12/11 04:30:48;;;;;;;3.55;3.20;;;1.40;99.90;;;0.47;100.00;96382.84;5067269;28;20029;-37
2021/12/11 04:33:14;;;;;;;4.80;3.35;;;1.50;99.90;;;0.45;100.00;96384.59;5069144;28;20063;-38
2021/12/11 04:35:42;;;;;;;11.20;3.90;;;1.50;99.90;;;0.50;100.00;96392.31;5068624;28;20696;-37
2021/12/11 04:38:09;;;;;;;5.90;3.47;;;1.50;99.90;;;0.49;100.00;96394.06;5068858;28;20102;-37
2021/12/11 04:40:39;;;;;;;3.92;3.42;;;1.50;99.90;;;0.52;100.00;96404.41;5066793;28;20063;-38
2021/12/11 04:43:14;;;;;;;3.67;3.25;;;1.50;99.90;;;0.52;100.00;96406.13;5069629;28;20046;-37
2021/12/11 04:46:06;;;;;;;7.53;4.10;;;1.50;99.90;;;0.52;100.00;96401.81;5069118;28;20032;-37
2021/12/11 04:51:19;;;;;;;4.10;3.70;;;1.50;99.90;;;0.55;100.00;96413.88;5069919;28;20063;-37
2021/12/11 04:54:08;;;;;;;3.78;3.40;;;1.50;99.90;;;0.56;100.00;96411.25;5071439;28;20025;-37
2021/12/11 04:59:42;;;;;;;5.32;4.07;;;1.60;99.90;;;0.57;100.00;96425.97;5069361;28;20393;-38
2021/12/11 05:02:53;;;;;;;4.60;3.97;;;1.60;99.90;;;0.57;100.00;96433.75;5070530;28;20032;-38
2021/12/11 05:10:48;;;;;;;4.85;3.90;;;1.60;99.90;;;0.54;100.00;96440.69;5067441;28;20140;-37
2021/12/11 05:13:14;;;;;;;6.68;5.25;;;1.50;99.90;;;0.60;100.00;96455.31;5069840;28;20024;-38
2021/12/11 05:15:44;;;;;;;5.10;4.57;;;1.60;99.90;;;0.63;100.00;96463.06;5066290;28;20038;-38
2021/12/11 05:18:16;;;;;;;5.78;5.00;;;1.60;99.90;;;0.63;100.00;96465.66;5065218;28;20039;-37
2021/12/11 05:20:47;;;;;;;5.05;4.53;;;1.60;99.90;;;0.65;100.00;96474.28;5066655;28;20942;-38
2021/12/11 05:23:16;;;;;;;7.40;4.60;;;1.60;99.90;;;0.58;100.00;96483.88;5067850;28;20043;-37
2021/12/11 05:25:43;;;;;;;7.35;4.85;;;1.60;99.90;;;0.57;100.00;96482.16;5066238;28;20725;-38
2021/12/11 05:28:09;;;;;;;5.55;4.72;;;1.60;99.90;;;0.42;100.00;96456.41;5073100;28;20052;-37
2021/12/11 05:30:39;;;;;;;5.80;4.75;;;1.60;99.90;;;0.64;100.00;96496.78;5068639;28;20104;-38
2021/12/11 05:33:05;;;;;;;10.68;5.75;;;1.60;99.90;;;0.73;100.00;96498.41;5070102;28;20039;-37
2021/12/11 05:35:36;;;;;;;4.95;4.22;;;1.60;99.90;;;0.67;100.00;96509.72;5071492;28;20028;-37
2021/12/11 05:38:04;;;;;;;6.80;4.88;;;1.60;99.90;;;0.63;100.00;96517.53;5075249;28;20055;-40
2021/12/11 05:40:32;;;;;;;6.80;4.57;;;1.60;99.90;;;0.60;100.00;96518.44;5071768;28;20033;-39
2021/12/11 05:42:58;;;;;;;5.65;4.70;;;1.60;99.90;;;0.63;100.00;96526.22;5073772;28;20349;-38
2021/12/11 05:45:25;;;;;;;5.15;4.65;;;1.60;99.90;;;0.65;100.00;96533.97;5074300;28;20447;-37
2021/12/11 05:47:52;;;;;;;9.60;4.80;;;1.60;99.90;;;0.62;100.00;96537.44;5077061;28;20036;-37
2021/12/11 05:50:30;;;;;;;18.13;5.88;;;1.60;99.90;;;0.61;100.00;96540.06;5074342;28;20036;-38
2021/12/11 05:52:56;;;;;;;7.95;4.90;;;1.60;99.90;;;0.67;100.00;96540.00;5075993;28;20038;-38
2021/12/11 05:55:24;;;;;;;6.70;5.20;;;1.60;99.90;;;0.65;100.00;96546.97;5073070;28;20072;-39
2021/12/11 05:57:53;;;;;;;7.80;5.53;;;1.60;99.90;;;0.63;100.00;96548.69;5074016;28;20028;-39
2021/12/11 06:00:25;;;;;;;8.57;5.68;;;1.60;99.90;;;0.59;100.00;96555.63;5077568;28;20398;-39
2021/12/11 06:02:51;;;;;;;;;;;1.60;99.90;;;0.59;100.00;96568.63;5075897;28;20237;-38
2021/12/11 06:05:17;;;;;;;7.57;4.97;;;1.60;99.90;;;0.50;100.00;96561.81;5077006;28;19935;-38
2021/12/11 06:07:43;;;;;;;8.38;5.72;;;1.50;99.90;;;0.59;100.00;96581.59;5073566;28;20031;-38
2021/12/11 06:10:16;;;;;;;7.28;6.20;;;1.60;99.90;;;0.61;100.00;96581.56;5073979;28;20083;-38
2021/12/11 06:12:43;;;;;;;9.75;5.32;;;1.60;99.90;;;0.56;100.00;96592.88;5068791;28;20031;-38
2021/12/11 06:15:10;;;;;;;8.70;6.25;;;1.60;99.90;;;0.54;100.00;96597.22;5073192;28;20047;-38
2021/12/11 06:17:36;;;;;;;7.95;5.90;;;1.50;99.90;;;0.64;100.00;96597.13;5074339;28;20062;-38
2021/12/11 06:20:06;;;;;;;7.57;6.05;;;1.60;99.90;;;0.59;100.00;96606.69;5073678;28;20346;-38
2021/12/11 06:22:34;;;;;;;7.53;5.90;;;1.60;99.90;;;0.56;100.00;96616.22;5074002;28;20051;-38
2021/12/11 06:25:18;;;;;;;91.20;11.75;;;1.50;99.90;;;0.52;100.00;96604.16;5072266;28;20543;-38
2021/12/11 06:27:45;;;;;;;26.50;8.48;;;1.60;99.90;;;0.55;100.00;96617.09;5073053;28;20024;-38
2021/12/11 06:30:13;;;;;;;8.23;6.57;;;1.50;99.90;;;0.54;100.00;96628.34;5073031;28;20037;-37
2021/12/11 06:32:40;;;;;;;14.88;7.93;;;1.50;99.90;;;0.43;100.00;96603.38;5071859;28;20033;-38
2021/12/11 06:35:18;;;;;;;9.18;7.20;;;1.50;99.90;;;0.55;100.00;96632.66;5074555;28;20036;-38
2021/12/11 06:37:44;;;;;;;11.07;7.68;;;1.50;99.90;;;0.59;100.00;96637.81;5073795;28;20024;-37
2021/12/11 06:40:11;;;;;;;9.82;7.45;;;1.50;99.90;;;0.57;100.00;96638.72;5074373;28;20032;-37
2021/12/11 06:42:37;;;;;;;9.45;7.72;;;1.60;99.90;;;0.39;100.00;96615.50;5074307;28;20040;-38
2021/12/11 06:45:04;;;;;;;8.90;7.28;;;1.60;99.90;;;0.60;100.00;96658.56;5073484;28;20366;-39
2021/12/11 06:47:31;;;;;;;11.63;8.38;;;1.60;99.90;;;0.52;100.00;96649.97;5068087;28;20398;-38
2021/12/11 06:49:57;;;;;;;11.48;8.10;;;1.60;99.90;;;0.66;100.00;96662.84;5064127;28;20028;-38
2021/12/11 06:52:25;;;;;;;11.55;8.50;;;1.60;99.90;;;0.63;100.00;96666.34;5069692;28;20040;-38
2021/12/11 06:54:52;;;;;;;13.85;8.80;;;1.60;99.90;;;0.61;100.00;96681.06;5070100;28;20044;-38
2021/12/11 06:57:18;;;;;;;10.77;8.50;;;1.60;99.90;;;0.61;100.00;96675.00;5067554;28;20121;-37
2021/12/11 06:59:46;;;;;;;13.43;8.90;;;1.60;99.90;;;0.62;100.00;96687.94;5066989;28;20498;-38
2021/12/11 07:02:12;;;;;;;12.77;9.50;;;1.60;99.90;;;0.61;100.00;96695.75;5067313;28;20039;-37
2021/12/11 07:04:38;;;;;;;13.95;10.25;;;1.60;99.90;;;0.66;100.00;96705.22;5068644;28;20436;-38
2021/12/11 07:07:04;;;;;;;11.82;8.70;;;1.60;99.90;;;0.67;100.00;96701.75;5068879;28;20032;-39
2021/12/11 07:09:31;;;;;;;11.77;9.38;;;1.60;99.90;;;0.68;100.00;96718.16;5072414;28;20028;-39
2021/12/11 07:11:58;;;;;;;11.43;8.90;;;1.60;99.90;;;0.74;100.00;96721.59;5073567;28;20035;-38
2021/12/11 07:14:29;;;;;;;12.05;8.80;;;1.70;99.90;;;0.69;100.00;96736.34;5066717;28;20017;-38
2021/12/11 07:16:56;;;;;;;14.48;9.48;;;1.60;99.90;;;0.70;100.00;96738.06;5063211;28;20205;-38
2021/12/11 07:19:22;;;;;;;11.13;8.13;;;1.70;99.90;;;0.64;100.00;96726.88;5069686;28;20055;-38
2021/12/11 07:21:50;;;;;;;11.15;9.02;;;1.70;99.90;;;0.69;100.00;96754.50;5067596;28;20037;-38
2021/12/11 07:24:30;;;;;;;13.90;10.40;;;1.70;99.90;;;0.71;100.00;96764.88;5067089;28;20587;-37
2021/12/11 07:26:56;;;;;;;12.02;9.50;;;1.70;99.90;;;0.73;100.00;96763.13;5065305;28;20040;-38
2021/12/11 07:29:22;;;;;;;14.23;10.10;;;1.70;99.90;;;0.63;100.00;96756.28;5071554;28;20055;-39
2021/12/11 07:31:50;;;;;;;16.00;11.35;;;1.70;99.90;;;0.73;100.00;96778.69;5069278;28;20059;-38
2021/12/11 07:34:17;;;;;;;26.10;11.05;;;1.70;99.90;;;0.70;100.00;96783.91;5065897;28;20024;-38
2021/12/11 07:36:43;;;;;;;16.33;10.57;;;1.70;99.90;;;0.71;100.00;96780.44;5060217;28;20079;-37
2021/12/11 07:39:14;;;;;;;15.48;10.68;;;1.70;99.90;;;0.74;100.00;96793.41;5069844;28;20028;-38
2021/12/11 07:41:40;;;;;;;16.05;11.48;;;1.70;99.90;;;0.74;100.00;96794.25;5073311;28;20081;-38
2021/12/11 07:44:06;;;;;;;16.27;11.50;;;1.70;99.90;;;0.76;100.00;96805.47;5070303;28;20111;-38
2021/12/11 07:46:34;;;;;;;18.70;11.35;;;1.70;99.90;;;0.74;100.00;96814.16;5070429;28;20061;-38
2021/12/11 07:49:02;;;;;;;20.40;12.55;;;1.70;99.90;;;0.74;100.00;96815.03;5071897;28;20402;-38
2021/12/11 07:51:30;;;;;;;17.27;11.98;;;1.70;99.90;;;0.79;100.00;96819.31;5072683;28;20028;-37
2021/12/11 07:53:56;;;;;;;16.05;11.68;;;1.70;99.90;;;0.81;100.00;96827.94;5066722;28;20445;-37
2021/12/11 07:56:23;;;;;;;17.42;11.70;;;1.80;99.90;;;0.80;100.00;96834.03;5067988;28;20078;-38
2021/12/11 07:58:52;;;;;;;15.45;11.05;;;1.80;99.90;;;0.79;100.00;96853.94;5070091;28;20016;-38
2021/12/11 08:01:18;;;;;;;15.55;10.82;;;1.80;99.90;;;0.88;100.00;96850.38;5071041;28;20041;-37
2021/12/11 08:03:44;;;;;;;16.95;12.05;;;1.80;99.90;;;0.76;100.00;96852.22;5070140;28;20024;-38
2021/12/11 08:06:12;;;;;;;17.45;12.93;;;1.80;99.90;;;0.83;100.00;96872.94;5071721;28;20610;-40
2021/12/11 08:08:41;;;;;;;19.38;13.30;;;1.80;99.90;;;0.84;100.00;96872.91;5069614;28;20028;-38
2021/12/11 08:11:13;;;;;;;17.58;13.07;;;1.80;99.90;;;0.84;100.00;96877.25;5068976;28;20484;-38
2021/12/11 08:13:41;;;;;;;;;;;1.80;99.90;;;0.84;100.00;96882.44;5068368;28;20060;-38
2021/12/11 08:16:07;;;;;;;16.35;12.13;;;1.80;99.90;;;0.86;100.00;96888.47;5073319;28;19912;-38
2021/12/11 08:18:33;;;;;;;19.13;12.77;;;1.80;99.90;;;0.86;100.00;96891.06;5071131;28;20036;-39
2021/12/11 08:20:59;;;;;;;20.10;12.27;;;1.80;99.90;;;0.78;100.00;96887.69;5071161;28;20088;-39
2021/12/11 08:23:25;;;;;;;20.50;13.75;;;1.80;99.90;;;0.72;100.00;96886.84;5069472;28;20287;-39
2021/12/11 08:25:52;;;;;;;18.98;13.80;;;1.80;99.90;;;0.81;100.00;96900.63;5070137;28;20040;-38
2021/12/11 08:28:29;;;;;;;18.73;13.30;;;1.80;99.90;;;0.78;100.00;96906.72;5069148;28;20916;-38
2021/12/11 08:30:55;;;;;;;18.08;12.60;;;1.80;99.90;;;0.81;100.00;96914.50;5067103;28;20028;-37
2021/12/11 08:33:24;;;;;;;18.27;13.48;;;1.80;99.90;;;0.83;100.00;96920.53;5070159;28;20067;-38
2021/12/11 08:35:51;;;;;;;20.00;13.38;;;1.80;99.90;;;0.85;100.00;96926.56;5070061;28;20107;-38
2021/12/11 08:38:18;;;;;;;18.77;12.52;;;1.80;99.90;;;0.93;100.00;96932.59;5073194;28;20025;-38
2021/12/11 08:40:49;;;;;;;17.17;12.25;;;1.90;99.90;;;0.88;100.00;96938.66;5067303;28;20479;-38
2021/12/11 08:43:17;;;;;;;18.92;12.63;;;1.90;99.90;;;0.90;100.00;96936.94;5069823;28;20119;-38
2021/12/11 08:45:49;;;;;;;22.13;12.52;;;1.90;99.90;;;0.92;100.00;96933.44;5066329;28;20040;-37
2021/12/11 08:48:21;;;;;;;20.02;13.38;;;1.90;99.90;;;1.00;100.00;96943.78;5065238;28;20469;-39
2021/12/11 08:50:50;;;;;;;18.55;11.38;;;1.90;99.90;;;1.02;100.00;96949.81;5065588;28;20062;-38
2021/12/11 08:53:17;;;;;;;20.98;13.02;;;2.00;99.90;;;1.03;100.00;96948.09;5068421;28;20028;-38
2021/12/11 08:55:49;;;;;;;21.35;13.05;;;2.00;99.90;;;1.01;100.00;96942.06;5068016;28;20028;-38
2021/12/11 08:58:18;;;;;;;17.67;11.65;;;2.10;99.90;;;1.19;100.00;96964.44;5068786;28;20028;-39
2021/12/11 09:00:51;;;;;;;18.75;11.60;;;2.10;99.90;;;1.18;100.00;96971.34;5063702;28;20092;-38
2021/12/11 09:03:43;;;;;;;16.65;12.05;;;2.10;99.90;;;1.17;100.00;96982.63;5067188;28;20040;-38
2021/12/11 09:06:23;;;;;;;19.13;11.82;;;2.20;99.90;;;1.21;100.00;96986.94;5070572;28;20028;-38
2021/12/11 09:09:19;;;;;;;15.18;9.80;;;2.20;99.90;;;1.18;100.00;96979.16;5069750;28;20024;-38
2021/12/11 09:12:22;;;;;;;15.40;10.18;;;2.20;99.90;;;1.29;100.00;96994.66;5066892;28;20265;-38
2021/12/11 09:14:55;;;;;;;;;;;2.30;99.90;;;1.33;100.00;96997.25;5070451;28;20032;-39
2021/12/11 09:17:33;;;;;;;17.40;9.93;;;2.30;99.90;;;1.40;100.00;96994.59;5067433;28;19912;-39
2021/12/11 09:19:59;;;;;;;18.55;11.88;;;2.40;99.90;;;1.38;100.00;97002.38;5068303;28;20120;-40
2021/12/11 09:22:46;;;;;;;14.93;10.32;;;2.40;99.90;;;1.45;100.00;97006.66;5068409;28;20120;-39
2021/12/11 09:25:23;;;;;;;14.63;10.52;;;2.40;99.90;;;1.54;100.00;97008.34;5069105;28;20024;-39
2021/12/11 09:28:29;;;;;;;14.88;10.00;;;2.50;99.90;;;1.57;100.00;97017.88;5071585;28;20378;-39
2021/12/11 09:31:32;;;;;;;15.45;10.18;;;2.60;99.90;;;1.66;100.00;97023.84;5063575;28;20287;-38
2021/12/11 09:34:21;;;;;;;12.57;9.15;;;2.60;99.90;;;1.70;100.00;97028.16;5064026;28;20122;-38
2021/12/11 09:36:57;;;;;;;15.43;10.85;;;2.70;99.90;;;1.88;100.00;97034.06;5065282;28;20017;-38
2021/12/11 09:39:38;;;;;;;14.40;10.05;;;2.80;99.90;;;1.73;100.00;96977.88;5064896;28;20025;-38
2021/12/11 09:42:03;;;;;;;12.30;9.02;;;2.90;99.90;;;2.13;100.00;97032.13;5065669;28;20028;-40
2021/12/11 09:44:43;;;;;;;15.13;10.02;;;3.00;99.90;;;2.12;100.00;97037.34;5063091;28;20032;-38
2021/12/11 09:47:16;;;;;;;13.38;9.68;;;3.10;99.90;;;2.05;100.00;97045.22;5068568;28;20042;-39
2021/12/11 09:49:53;;;;;;;11.70;8.75;;;3.10;99.90;;;2.06;100.00;97043.47;5067184;28;20128;-38
2021/12/11 09:52:25;;;;;;;16.48;9.25;;;3.10;99.90;;;2.10;100.00;97052.97;5066922;28;20488;-40
2021/12/11 09:55:05;;;;;;;12.77;8.80;;;3.10;99.90;;;2.16;100.00;97055.50;5067888;28;20029;-38
2021/12/11 09:57:36;;;;;;;13.88;8.40;;;3.10;99.90;;;2.24;100.00;97058.91;5067959;28;20020;-38
2021/12/11 10:00:32;;;;;;;13.85;8.80;;;3.20;99.90;;;2.28;100.00;97062.34;5069220;28;20106;-39
2021/12/11 10:02:58;;;;;;;13.60;8.60;;;3.20;99.90;;;2.31;100.00;97061.44;5069930;28;20040;-39
2021/12/11 10:05:34;;;;;;;10.93;7.90;;;3.30;99.90;;;2.31;100.00;97074.47;5070925;28;20028;-38
2021/12/11 10:11:03;;;;;;;12.23;8.18;;;3.30;99.90;;;2.40;100.00;97083.03;5068234;28;21129;-38
2021/12/11 10:13:30;;;;;;;11.52;7.20;;;3.30;99.90;;;2.36;100.00;97086.56;5059486;28;20059;-38
2021/12/11 10:15:56;;;;;;;11.15;7.28;;;3.40;99.90;;;2.46;100.00;97087.34;5066705;28;20132;-38
2021/12/11 10:18:26;;;;;;;11.55;6.75;;;3.40;99.90;;;2.58;100.00;97092.41;5067157;28;20538;-38
2021/12/11 10:21:07;;;;;;;9.38;6.47;;;3.50;99.90;;;2.58;100.00;97092.41;5066398;28;20493;-39
2021/12/11 10:23:36;;;;;;;8.80;6.35;;;3.50;99.90;;;2.52;100.00;97089.00;5069159;28;20117;-38
2021/12/11 10:26:10;;;;;;;10.40;5.85;;;3.50;99.90;;;2.54;100.00;97097.66;5072355;28;20111;-37
2021/12/11 10:28:44;;;;;;;8.27;6.50;;;3.50;99.90;;;2.55;100.00;97094.16;5070946;28;20028;-39
2021/12/11 10:31:28;;;;;;;11.18;7.25;;;3.50;99.90;;;2.56;100.00;97095.91;5066893;28;20398;-38
2021/12/11 10:33:57;;;;;;;11.45;6.35;;;3.50;99.90;;;2.38;100.00;97076.13;5066477;28;20059;-38
2021/12/11 10:36:28;;;;;;;8.75;6.32;;;3.50;99.90;;;2.60;100.00;97111.50;5070415;28;20035;-39
2021/12/11 10:38:58;;;;;;;10.23;6.80;;;3.60;99.90;;;2.63;100.00;97102.78;5075487;28;20078;-39
2021/12/11 10:41:26;;;;;;;11.45;8.18;;;3.60;99.90;;;2.73;100.00;97109.63;5071905;28;20042;-38
2021/12/11 10:44:07;;;;;;;9.73;6.05;;;3.60;99.90;;;2.75;100.00;97123.47;5072951;28;20028;-38
2021/12/11 10:46:41;;;;;;;9.45;6.30;;;3.70;99.90;;;2.67;100.00;97112.28;5069760;28;20178;-39
2021/12/11 10:49:10;;;;;;;8.05;5.63;;;3.60;99.90;;;2.78;100.00;97120.84;5071464;28;20028;-40
2021/12/11 10:51:45;;;;;;;9.80;6.45;;;3.60;99.90;;;2.71;100.00;97132.22;5072438;28;20047;-39
2021/12/11 10:54:15;;;;;;;9.98;5.35;;;3.60;99.90;;;2.59;100.00;97127.13;5073257;28;20456;-39
2021/12/11 10:56:43;;;;;;;7.72;5.55;;;3.60;99.90;;;2.61;100.00;97125.38;5072807;28;20032;-38
2021/12/11 10:59:24;;;;;;;7.70;5.75;;;3.60;99.90;;;2.67;100.00;97131.38;5072324;28;20111;-38
2021/12/11 11:02:06;;;;;;;7.35;5.28;;;3.60;99.90;;;2.77;100.00;97126.94;5072165;28;20719;-38